Time;durP1;ratioP1;P1;durP2;ratioP2;P2;SDS_P1;SDS_P2;PMS_P1;PMS_P2;Temp;Humidity;BMP_temperature;BMP_pressure;BME280_temperature;BME280_humidity;BME280_pressure;Samples;Min_cycle;Max_cycle;Signal;HPM_P1;HPM_P2
2022/10/06 00:00:29;;;;;;;13.55;2.05;;;;;;;19.43;100.00;101915.25;5003581;28;20054;-56
2022/10/06 00:02:55;;;;;;;19.67;2.78;;;;;;;19.77;100.00;101917.50;5005257;28;20045;-52
2022/10/06 00:05:21;;;;;;;14.77;1.70;;;;;;;19.73;100.00;101924.47;5031407;28;20030;-54
2022/10/06 00:07:46;;;;;;;11.27;1.57;;;;;;;19.54;100.00;101924.50;5003953;28;20043;-53
2022/10/06 00:10:12;;;;;;;10.73;1.77;;;;;;;19.77;100.00;101934.63;5024188;28;20069;-55
2022/10/06 00:12:40;;;;;;;22.08;2.47;;;;;;;19.24;100.00;101938.88;5014071;28;20094;-51
2022/10/06 00:15:06;;;;;;;14.93;2.37;;;;;;;19.63;100.00;101942.16;5010492;28;20043;-51
2022/10/06 00:17:31;;;;;;;11.57;2.03;;;;;;;19.26;100.00;101954.91;5012027;28;20274;-52
2022/10/06 00:19:57;;;;;;;19.20;3.47;;;;;;;19.47;100.00;101956.34;5006173;28;20046;-54
2022/10/06 00:22:22;;;;;;;10.43;3.08;;;;;;;19.69;100.00;101964.78;4996738;28;20042;-50
2022/10/06 00:24:48;;;;;;;13.27;1.70;;;;;;;18.99;100.00;101969.59;5008953;28;20039;-51
2022/10/06 00:27:13;;;;;;;14.95;1.88;;;;;;;18.80;100.00;101974.16;5012778;28;20027;-55
2022/10/06 00:29:41;;;;;;;14.88;2.97;;;;;;;18.82;100.00;101976.63;5002261;28;20035;-56
2022/10/06 00:32:08;;;;;;;22.13;3.10;;;;;;;18.98;100.00;101992.34;5004258;28;20042;-51
2022/10/06 00:34:38;;;;;;;18.97;3.03;;;;;;;18.58;100.00;101992.66;4985347;28;20276;-49
2022/10/06 00:37:03;;;;;;;9.23;2.00;;;;;;;18.94;100.00;101996.53;5008634;28;20278;-53
2022/10/06 00:39:29;;;;;;;15.07;2.50;;;;;;;18.86;100.00;101999.50;5006882;28;20308;-53
2022/10/06 00:41:54;;;;;;;15.67;2.63;;;;;;;19.11;100.00;102007.63;5011628;28;20310;-49
2022/10/06 00:44:20;;;;;;;14.68;2.47;;;;;;;18.83;100.00;102016.22;5002168;28;20269;-50
2022/10/06 00:46:50;;;;;;;16.50;2.80;;;;;;;19.00;100.00;102016.50;4977433;28;20099;-52
2022/10/06 00:49:33;;;;;;;16.43;2.67;;;;;;;19.56;100.00;102025.50;4990903;28;20041;-54
2022/10/06 00:52:02;;;;;;;13.77;2.70;;;;;;;19.41;100.00;102027.78;5004853;28;20350;-52
2022/10/06 00:54:30;;;;;;;10.37;1.83;;;;;;;19.66;100.00;102024.16;4978668;28;20285;-53
2022/10/06 00:56:56;;;;;;;16.57;1.80;;;;;;;19.29;100.00;102038.53;4990712;28;20275;-55
2022/10/06 00:59:22;;;;;;;12.10;2.63;;;;;;;18.87;100.00;102042.66;4982964;28;20272;-54
2022/10/06 01:02:19;;;;;;;21.23;2.63;;;;;;;19.04;100.00;102042.94;4974153;28;20325;-52
2022/10/06 01:04:55;;;;;;;16.60;2.80;;;;;;;18.85;100.00;102043.91;4983499;28;20066;-54
2022/10/06 01:07:25;;;;;;;22.77;3.83;;;;;;;18.80;100.00;102039.19;4977960;28;20317;-56
2022/10/06 01:09:51;;;;;;;12.83;2.50;;;;;;;19.13;100.00;102048.06;4982877;28;20295;-53
2022/10/06 01:12:18;;;;;;;15.05;2.70;;;;;;;19.54;100.00;102059.34;4972639;28;20269;-54
2022/10/06 01:14:44;;;;;;;16.70;2.37;;;;;;;18.82;100.00;102056.06;4973355;28;20035;-54
2022/10/06 01:17:23;;;;;;;22.63;2.97;;;;;;;19.09;100.00;102063.97;4993702;28;20330;-54
2022/10/06 01:19:54;;;;;;;20.03;2.30;;;;;;;19.37;100.00;102064.50;4973773;28;20027;-52
2022/10/06 01:22:40;;;;;;;16.57;2.13;;;;;;;19.65;100.00;102074.03;4977999;28;20269;-52
2022/10/06 01:25:07;;;;;;;13.57;2.10;;;;;;;19.13;100.00;102076.03;5003187;28;20270;-55
2022/10/06 01:27:35;;;;;;;22.33;2.90;;;;;;;19.15;100.00;102083.94;4993004;28;20356;-55
2022/10/06 01:30:02;;;;;;;11.77;1.90;;;;;;;19.50;100.00;102091.50;5000504;28;20291;-54
2022/10/06 01:32:33;;;;;;;14.80;2.27;;;;;;;19.44;100.00;102092.41;4973412;28;20269;-52
2022/10/06 01:34:59;;;;;;;16.13;2.50;;;;;;;19.14;100.00;102093.09;4981431;28;20291;-54
2022/10/06 01:37:25;;;;;;;9.65;2.72;;;;;;;18.99;100.00;102098.88;4979586;28;20414;-51
2022/10/06 01:39:52;;;;;;;;;;;;;;;19.06;100.00;102097.78;5001171;28;20031;-54
2022/10/06 01:42:17;;;;;;;15.07;2.40;;;;;;;19.23;100.00;102108.06;4992660;28;19914;-49
2022/10/06 01:44:43;;;;;;;12.77;2.55;;;;;;;18.96;100.00;102102.84;4999908;28;20035;-58
2022/10/06 01:47:09;;;;;;;14.20;2.25;;;;;;;18.94;100.00;102099.53;4981327;28;20047;-55
2022/10/06 01:49:34;;;;;;;23.77;3.28;;;;;;;19.32;100.00;102122.16;5007500;28;20034;-54
2022/10/06 01:52:01;;;;;;;16.13;2.65;;;;;;;19.22;100.00;102122.66;4978583;28;20051;-54
2022/10/06 01:54:26;;;;;;;18.48;2.70;;;;;;;19.37;100.00;102118.75;4973147;28;20045;-52
2022/10/06 01:56:54;;;;;;;19.80;2.67;;;;;;;19.19;100.00;102120.41;4978212;28;20023;-53
2022/10/06 01:59:20;;;;;;;19.15;2.30;;;;;;;19.24;100.00;102126.00;4985953;28;20312;-48
2022/10/06 02:01:45;;;;;;;25.38;2.85;;;;;;;19.33;100.00;102127.34;4974624;28;20031;-53
2022/10/06 02:04:12;;;;;;;;;;;;;;;18.83;100.00;102125.47;4978568;28;20103;-50
2022/10/06 02:06:38;;;;;;;16.43;2.70;;;;;;;18.60;100.00;102126.00;4997767;28;19957;-49
2022/10/06 02:09:05;;;;;;;28.70;4.72;;;;;;;18.46;100.00;102123.41;4978302;28;20277;-55
2022/10/06 02:11:31;;;;;;;19.07;2.20;;;;;;;18.66;100.00;102133.25;4979974;28;20031;-55
2022/10/06 02:13:58;;;;;;;13.65;2.63;;;;;;;18.75;100.00;102141.97;4979633;28;20301;-52
2022/10/06 02:16:23;;;;;;;23.53;3.43;;;;;;;18.81;100.00;102143.81;4987768;28;20111;-53
2022/10/06 02:18:49;;;;;;;20.73;2.67;;;;;;;18.48;100.00;102148.38;4971655;28;20270;-54
2022/10/06 02:21:18;;;;;;;14.57;2.45;;;;;;;18.32;100.00;102151.59;4986142;28;20269;-52
2022/10/06 02:23:44;;;;;;;21.60;2.97;;;;;;;18.53;100.00;102141.50;4979820;28;20045;-53
2022/10/06 02:26:11;;;;;;;22.25;2.72;;;;;;;18.43;100.00;102153.59;4986979;28;20285;-52
2022/10/06 02:28:38;;;;;;;13.63;2.77;;;;;;;18.47;100.00;102160.28;4984646;28;20051;-50
2022/10/06 02:31:07;;;;;;;20.97;2.80;;;;;;;18.37;100.00;102164.50;4983481;28;20282;-51
2022/10/06 02:33:35;;;;;;;20.83;3.17;;;;;;;18.51;100.00;102160.66;4978327;28;20267;-55
2022/10/06 02:36:01;;;;;;;10.27;2.13;;;;;;;18.20;100.00;102164.97;4983841;28;20266;-54
2022/10/06 02:38:28;;;;;;;22.53;2.87;;;;;;;18.39;100.00;102173.22;4973064;28;20267;-55
2022/10/06 02:40:54;;;;;;;30.40;4.17;;;;;;;18.01;100.00;102172.94;4981513;28;20270;-52
2022/10/06 02:43:20;;;;;;;17.77;2.92;;;;;;;18.37;100.00;102183.44;4985055;28;20266;-52
2022/10/06 02:45:54;;;;;;;16.33;3.47;;;;;;;18.22;100.00;102189.09;4993374;28;20094;-54
2022/10/06 02:48:23;;;;;;;13.27;2.67;;;;;;;17.74;100.00;102191.06;4984025;28;20047;-53
2022/10/06 02:51:00;;;;;;;17.87;2.40;;;;;;;17.54;100.00;102197.38;4993229;28;20269;-53
2022/10/06 02:53:27;;;;;;;13.57;2.08;;;;;;;17.55;100.00;102188.22;4985773;28;20265;-51
2022/10/06 02:56:19;;;;;;;14.83;2.47;;;;;;;17.60;100.00;102198.38;4991260;28;20035;-53
2022/10/06 02:58:49;;;;;;;26.73;2.93;;;;;;;17.51;100.00;102205.88;5007092;28;20280;-54
2022/10/06 03:01:26;;;;;;;17.03;2.30;;;;;;;17.45;100.00;102215.66;5016013;28;20261;-51
2022/10/06 03:03:53;;;;;;;14.20;2.20;;;;;;;17.75;100.00;102208.97;5020640;28;20268;-54
2022/10/06 03:06:21;;;;;;;15.85;2.42;;;;;;;17.80;100.00;102209.19;4993448;28;20284;-49
2022/10/06 03:08:55;;;;;;;20.13;2.43;;;;;;;17.43;100.00;102219.63;4989595;28;20077;-51
2022/10/06 03:11:27;;;;;;;16.95;2.58;;;;;;;17.52;100.00;102231.88;4997136;28;20277;-55
2022/10/06 03:13:53;;;;;;;16.13;2.47;;;;;;;17.14;100.00;102229.78;4997529;28;20038;-50
2022/10/06 03:16:23;;;;;;;14.57;2.55;;;;;;;17.46;100.00;102230.00;5009924;28;20266;-51
2022/10/06 03:18:50;;;;;;;13.33;2.07;;;;;;;18.18;100.00;102230.16;5023302;28;20131;-54
2022/10/06 03:21:16;;;;;;;14.83;2.27;;;;;;;18.21;100.00;102239.72;4987641;28;20314;-53
2022/10/06 03:23:43;;;;;;;20.97;2.47;;;;;;;18.07;100.00;102247.06;5011039;28;20262;-54
2022/10/06 03:26:11;;;;;;;21.80;2.67;;;;;;;17.87;100.00;102247.03;5029068;28;20280;-53
2022/10/06 03:28:37;;;;;;;19.53;3.00;;;;;;;17.96;100.00;102247.66;5003449;28;20303;-50
2022/10/06 03:31:04;;;;;;;;;;;;;;;18.25;100.00;102259.91;4992804;28;20357;-50
2022/10/06 03:33:30;;;;;;;16.48;1.80;;;;;;;18.42;100.00;102259.47;5029591;28;19914;-49
2022/10/06 03:35:59;;;;;;;;;;;;;;;17.65;100.00;102262.69;4996427;28;20034;-51
2022/10/06 03:38:25;;;;;;;15.10;2.33;;;;;;;17.50;100.00;102269.13;4997369;28;19914;-52
2022/10/06 03:40:51;;;;;;;19.33;2.85;;;;;;;17.50;100.00;102269.13;5017488;28;20280;-54
2022/10/06 03:43:16;;;;;;;11.33;2.30;;;;;;;17.40;100.00;102268.69;5014728;28;20034;-55
2022/10/06 03:45:42;;;;;;;18.77;3.10;;;;;;;17.35;100.00;102272.00;5004975;28;20315;-54
2022/10/06 03:48:07;;;;;;;22.17;3.10;;;;;;;17.72;100.00;102275.16;4971812;28;20037;-55
2022/10/06 03:50:33;;;;;;;16.02;2.20;;;;;;;17.27;100.00;102286.56;4993171;28;20049;-50
2022/10/06 03:52:58;;;;;;;28.03;3.17;;;;;;;17.55;100.00;102288.28;4974052;28;20082;-52
2022/10/06 03:55:24;;;;;;;14.47;2.83;;;;;;;17.40;100.00;102293.03;4981525;28;20282;-53
2022/10/06 03:57:49;;;;;;;18.13;2.43;;;;;;;16.88;100.00;102301.63;5002709;28;20032;-53
2022/10/06 04:00:15;;;;;;;24.98;3.60;;;;;;;17.13;100.00;102307.31;4995552;28;20605;-54
2022/10/06 04:02:42;;;;;;;15.50;2.80;;;;;;;16.88;100.00;102294.31;4984322;28;20061;-50
2022/10/06 04:05:08;;;;;;;20.75;2.95;;;;;;;17.24;100.00;102296.97;4985163;28;20270;-52
2022/10/06 04:07:34;;;;;;;16.77;2.95;;;;;;;17.52;100.00;102310.31;4991988;28;20043;-52
2022/10/06 04:10:00;;;;;;;19.38;2.83;;;;;;;17.90;100.00;102317.00;4981968;28;20032;-54
2022/10/06 04:12:26;;;;;;;25.25;2.97;;;;;;;18.24;100.00;102323.25;4980590;28;20073;-52
2022/10/06 04:14:52;;;;;;;13.88;2.45;;;;;;;17.32;100.00;102315.69;4986326;28;20042;-52
2022/10/06 04:17:18;;;;;;;16.38;2.65;;;;;;;17.00;100.00;102331.63;4979539;28;20102;-49
2022/10/06 04:19:43;;;;;;;18.67;2.30;;;;;;;17.28;100.00;102328.78;4972506;28;20069;-51
2022/10/06 04:22:09;;;;;;;17.38;2.50;;;;;;;17.71;100.00;102335.72;4989929;28;20093;-50
2022/10/06 04:24:35;;;;;;;14.23;2.33;;;;;;;17.71;100.00;102346.56;4998158;28;20037;-52
2022/10/06 04:29:55;;;;;;;15.90;2.20;;;;;;;17.02;100.00;102360.09;4997446;28;20027;-55
2022/10/06 04:32:20;;;;;;;15.73;3.30;;;;;;;17.10;100.00;102353.69;4957280;28;20341;-53
2022/10/06 04:34:46;;;;;;;15.27;2.25;;;;;;;17.10;100.00;102353.69;4981634;28;20035;-48
2022/10/06 04:37:12;;;;;;;15.43;2.47;;;;;;;17.00;100.00;102356.75;5003455;28;20025;-55
2022/10/06 04:39:39;;;;;;;25.97;2.93;;;;;;;16.70;100.00;102357.00;4971533;28;20030;-53
2022/10/06 04:42:06;;;;;;;28.90;4.07;;;;;;;16.87;100.00;102364.78;4995033;28;20269;-51
2022/10/06 04:44:32;;;;;;;11.00;2.97;;;;;;;17.13;100.00;102371.38;4981745;28;20483;-50
2022/10/06 04:47:00;;;;;;;26.07;3.33;;;;;;;16.97;100.00;102367.94;4993465;28;20039;-55
2022/10/06 04:49:25;;;;;;;17.47;3.10;;;;;;;17.08;100.00;102376.56;4975961;28;20350;-52
2022/10/06 04:51:52;;;;;;;17.67;2.80;;;;;;;17.50;100.00;102374.59;4977991;28;20301;-50
2022/10/06 04:54:18;;;;;;;28.77;3.38;;;;;;;17.29;100.00;102384.50;4968669;28;20273;-49
2022/10/06 04:56:44;;;;;;;15.90;2.03;;;;;;;17.02;100.00;102380.88;4985102;28;20042;-50
2022/10/06 04:59:09;;;;;;;15.68;3.25;;;;;;;17.43;100.00;102385.41;4979022;28;20122;-52
2022/10/06 05:01:38;;;;;;;18.77;3.23;;;;;;;17.44;100.00;102389.78;4985201;28;20098;-55
2022/10/06 05:04:07;;;;;;;17.43;3.13;;;;;;;17.03;100.00;102388.78;4977313;28;20285;-56
2022/10/06 05:06:36;;;;;;;22.73;2.95;;;;;;;16.95;100.00;102390.78;4980267;28;20340;-51
2022/10/06 05:09:05;;;;;;;23.07;3.23;;;;;;;16.94;100.00;102399.94;4977812;28;20050;-55
2022/10/06 05:11:33;;;;;;;25.03;4.73;;;;;;;17.00;100.00;102410.81;4976647;28;20266;-50
2022/10/06 05:14:00;;;;;;;18.77;3.27;;;;;;;16.94;100.00;102400.78;4983141;28;20274;-52
2022/10/06 05:16:29;;;;;;;15.87;2.93;;;;;;;16.59;100.00;102403.47;4985603;28;20263;-52
2022/10/06 05:18:56;;;;;;;25.93;3.93;;;;;;;16.69;100.00;102411.22;4996669;28;20308;-52
2022/10/06 05:21:26;;;;;;;11.40;2.53;;;;;;;16.92;100.00;102422.56;4991728;28;20350;-52
2022/10/06 05:23:52;;;;;;;20.13;3.50;;;;;;;16.24;100.00;102423.13;4988193;28;20296;-52
2022/10/06 05:26:22;;;;;;;17.07;2.77;;;;;;;16.81;100.00;102433.09;4995377;28;20346;-51
2022/10/06 05:28:48;;;;;;;24.23;3.50;;;;;;;16.78;100.00;102435.19;4995010;28;20297;-54
2022/10/06 05:31:16;;;;;;;;;;;;;;;17.13;100.00;102436.25;4975283;28;20301;-52
2022/10/06 05:33:42;;;;;;;18.65;3.85;;;;;;;17.01;100.00;102444.91;4985453;28;19922;-53
2022/10/06 05:36:15;;;;;;;15.38;2.58;;;;;;;16.85;100.00;102442.50;4970389;28;20043;-53
2022/10/06 05:38:41;;;;;;;21.07;3.33;;;;;;;16.91;100.00;102455.22;4978560;28;20031;-51
2022/10/06 05:41:13;;;;;;;9.63;2.63;;;;;;;16.61;100.00;102452.75;4977575;28;20278;-54
2022/10/06 05:43:39;;;;;;;18.40;2.90;;;;;;;16.63;100.00;102456.09;4991314;28;20038;-52
2022/10/06 05:46:19;;;;;;;21.23;3.03;;;;;;;16.44;100.00;102458.44;4996533;28;20285;-55
2022/10/06 05:48:48;;;;;;;25.40;3.23;;;;;;;16.51;100.00;102465.72;4980815;28;20273;-52
2022/10/06 05:51:17;;;;;;;15.77;2.87;;;;;;;16.88;100.00;102461.03;4983976;28;20297;-49
2022/10/06 05:53:43;;;;;;;25.40;3.43;;;;;;;16.36;100.00;102461.25;4994958;28;20291;-51
2022/10/06 05:56:14;;;;;;;17.05;2.92;;;;;;;16.65;100.00;102469.38;4978103;28;20269;-54
2022/10/06 05:58:41;;;;;;;21.13;3.20;;;;;;;16.61;100.00;102475.16;4980713;28;20046;-54
2022/10/06 06:01:21;;;;;;;21.83;3.60;;;;;;;16.36;100.00;102476.63;4987142;28;20350;-54
2022/10/06 06:03:59;;;;;;;18.37;3.43;;;;;;;16.58;100.00;102489.06;4968998;28;20283;-52
2022/10/06 06:06:28;;;;;;;27.57;4.63;;;;;;;16.46;100.00;102494.16;4994215;28;20279;-55
2022/10/06 06:08:59;;;;;;;23.00;3.20;;;;;;;16.64;100.00;102498.25;4974632;28;20269;-51
2022/10/06 06:11:30;;;;;;;16.50;2.90;;;;;;;16.61;100.00;102504.06;4973394;28;20267;-55
2022/10/06 06:14:01;;;;;;;17.70;3.13;;;;;;;16.90;100.00;102513.81;4981384;28;20274;-52
2022/10/06 06:16:29;;;;;;;23.90;3.90;;;;;;;16.92;100.00;102513.63;4979927;28;20338;-50
2022/10/06 06:18:55;;;;;;;25.47;3.07;;;;;;;17.06;100.00;102510.00;4990117;28;20277;-55
2022/10/06 06:21:22;;;;;;;19.98;2.70;;;;;;;15.99;100.00;102514.47;4987153;28;20280;-50
2022/10/06 06:23:48;;;;;;;18.08;3.45;;;;;;;16.25;100.00;102510.38;4977662;28;20036;-52
2022/10/06 06:26:17;;;;;;;18.27;3.40;;;;;;;16.61;100.00;102510.28;4968763;28;20065;-51
2022/10/06 06:28:47;;;;;;;23.80;3.83;;;;;;;16.72;100.00;102517.03;4984925;28;20261;-52
2022/10/06 06:31:16;;;;;;;17.47;3.23;;;;;;;16.88;100.00;102515.88;4990617;28;20273;-51
2022/10/06 06:33:42;;;;;;;28.47;3.37;;;;;;;16.97;100.00;102523.88;4981526;28;20270;-52
2022/10/06 06:36:16;;;;;;;;;;;;;;;16.52;100.00;102526.81;4989444;28;20327;-52
2022/10/06 06:38:46;;;;;;;20.40;3.80;;;;;;;16.42;100.00;102519.88;4991838;28;19933;-52
2022/10/06 06:41:13;;;;;;;19.10;3.07;;;;;;;16.47;100.00;102533.63;4978566;28;20333;-54
2022/10/06 06:43:40;;;;;;;19.07;3.13;;;;;;;16.54;100.00;102535.56;4971250;28;20266;-54
2022/10/06 06:46:26;;;;;;;20.43;4.20;;;;;;;16.98;100.00;102534.50;4980088;28;20351;-54
2022/10/06 06:49:03;;;;;;;21.87;4.97;;;;;;;16.95;100.00;102536.72;4975954;28;20329;-53
2022/10/06 06:51:36;;;;;;;19.10;3.77;;;;;;;17.17;100.00;102546.47;4972405;28;20274;-51
2022/10/06 06:54:03;;;;;;;19.97;3.50;;;;;;;17.17;100.00;102557.28;4958691;28;20701;-53
2022/10/06 06:56:33;;;;;;;18.37;2.87;;;;;;;17.13;100.00;102555.19;4977820;28;20337;-56
2022/10/06 06:59:09;;;;;;;24.10;3.73;;;;;;;16.76;100.00;102564.22;4980807;28;20281;-52
2022/10/06 07:01:37;;;;;;;33.13;5.37;;;;;;;16.89;100.00;102565.38;4995779;28;20294;-53
2022/10/06 07:04:03;;;;;;;14.83;3.03;;;;;;;16.77;100.00;102574.00;4974686;28;20911;-53
2022/10/06 07:06:32;;;;;;;24.47;4.23;;;;;;;16.69;100.00;102581.41;4973998;28;20277;-53
2022/10/06 07:09:00;;;;;;;26.43;4.37;;;;;;;16.87;100.00;102578.25;4989665;28;20294;-50
2022/10/06 07:11:34;;;;;;;;;;;;;;;17.08;100.00;102581.97;4996346;28;20288;-52
2022/10/06 07:14:05;;;;;;;11.77;3.40;;;;;;;17.27;100.00;102586.66;4978454;28;19914;-49
2022/10/06 07:25:05;;;;;;;20.47;3.83;;;;;;;17.63;100.00;102601.03;4976194;28;20039;-52
2022/10/06 07:27:43;;;;;;;20.37;4.03;;;;;;;17.58;100.00;102609.75;4996360;28;20277;-51
2022/10/06 07:30:13;;;;;;;19.83;3.73;;;;;;;17.80;100.00;102615.06;4990033;28;20376;-52
2022/10/06 07:32:39;;;;;;;23.83;5.07;;;;;;;18.14;100.00;102626.06;4988381;28;20278;-53
2022/10/06 07:35:06;;;;;;;18.52;2.80;;;;;;;18.19;100.00;102624.41;4993465;28;20279;-53
2022/10/06 07:37:34;;;;;;;19.20;4.07;;;;;;;17.99;100.00;102637.00;4993781;28;20098;-54
2022/10/06 07:40:00;;;;;;;28.13;4.20;;;;;;;18.25;100.00;102641.72;4984625;28;20330;-53
2022/10/06 07:42:26;;;;;;;14.50;3.30;;;;;;;17.84;100.00;102643.41;4979996;28;20295;-55
2022/10/06 07:47:39;;;;;;;17.60;3.33;;;;;;;18.13;100.00;102655.00;4982703;28;20035;-52
2022/10/06 07:50:06;;;;;;;24.48;3.58;;;;;;;18.43;100.00;102662.81;4993586;28;20520;-52
2022/10/06 07:52:35;;;;;;;20.70;4.30;;;;;;;18.68;100.00;102664.97;4999260;28;20051;-53
2022/10/06 07:55:03;;;;;;;16.80;3.87;;;;;;;18.84;100.00;102669.19;5004413;28;20307;-51
2022/10/06 07:57:38;;;;;;;20.67;3.37;;;;;;;18.45;100.00;102684.28;4972828;28;20278;-52
2022/10/06 08:00:05;;;;;;;20.73;3.63;;;;;;;19.06;100.00;102672.53;5009897;28;20280;-53
2022/10/06 08:02:38;;;;;;;17.73;3.67;;;;;;;18.55;100.00;102678.50;5002695;28;20035;-56
2022/10/06 08:05:04;;;;;;;18.23;3.23;;;;;;;18.84;100.00;102685.44;4998741;28;20292;-53
2022/10/06 08:07:30;;;;;;;14.52;3.13;;;;;;;19.03;100.00;102685.69;4996706;28;20312;-51
2022/10/06 08:09:55;;;;;;;28.42;3.28;;;;;;;19.52;100.00;102674.63;5006404;28;20061;-56
2022/10/06 08:12:33;;;;;;;19.77;3.45;;;;;;;19.37;100.00;102683.81;4998397;28;20480;-52
2022/10/06 08:15:01;;;;;;;12.43;2.70;;;;;;;19.94;100.00;102688.75;4997426;28;20165;-55
2022/10/06 08:17:28;;;;;;;16.50;3.20;;;;;;;19.49;100.00;102700.28;4999851;28;20268;-54
2022/10/06 08:19:53;;;;;;;22.52;3.35;;;;;;;19.38;100.00;102692.81;5003083;28;20266;-52
2022/10/06 08:22:21;;;;;;;18.17;3.22;;;;;;;19.77;100.00;102693.78;5006916;28;20058;-52
2022/10/06 08:24:47;;;;;;;14.10;3.23;;;;;;;19.51;100.00;102686.53;5010945;28;20102;-54
2022/10/06 08:27:13;;;;;;;18.30;3.17;;;;;;;19.88;100.00;102687.69;5006864;28;20281;-51
2022/10/06 08:29:39;;;;;;;12.38;2.42;;;;;;;20.20;100.00;102689.72;4999208;28;20063;-53
2022/10/06 08:32:04;;;;;;;17.35;3.83;;;;;;;20.99;100.00;102692.22;5008136;28;20031;-50
2022/10/06 08:34:30;;;;;;;7.47;1.98;;;;;;;21.10;100.00;102708.88;4998444;28;20039;-51
2022/10/06 08:36:56;;;;;;;8.68;2.42;;;;;;;21.42;100.00;102709.66;5004664;28;20036;-53
2022/10/06 08:39:22;;;;;;;18.25;2.72;;;;;;;22.21;100.00;102719.09;4999662;28;20093;-55
2022/10/06 08:41:52;;;;;;;18.27;3.05;;;;;;;21.42;100.00;102715.09;4997618;28;20074;-55
2022/10/06 08:44:31;;;;;;;16.70;2.73;;;;;;;22.31;100.00;102727.59;4997805;28;20072;-52
2022/10/06 08:47:04;;;;;;;8.60;2.07;;;;;;;22.54;100.00;102733.38;5013709;28;20039;-53
2022/10/06 08:49:38;;;;;;;16.10;2.87;;;;;;;23.49;100.00;102739.09;5012492;28;20032;-55
2022/10/06 08:52:17;;;;;;;14.07;2.30;;;;;;;24.23;96.20;102745.13;5003363;28;20055;-58
2022/10/06 08:54:46;;;;;;;10.33;2.43;;;;;;;24.43;92.97;102745.50;4987675;28;20035;-53
2022/10/06 08:57:40;;;;;;;9.70;2.33;;;;;;;24.63;91.69;102756.03;5001122;28;20025;-54
2022/10/06 09:00:12;;;;;;;15.33;2.50;;;;;;;24.59;89.70;102754.00;4943388;28;20053;-55
2022/10/06 09:02:44;;;;;;;14.70;2.50;;;;;;;25.13;87.02;102758.28;5005740;28;20064;-54
2022/10/06 09:05:13;;;;;;;11.30;2.40;;;;;;;24.96;86.20;102763.72;4990409;28;20034;-53
2022/10/06 09:08:05;;;;;;;15.87;2.27;;;;;;;26.09;80.36;102775.63;4991015;28;20049;-52
2022/10/06 09:10:43;;;;;;;9.10;1.90;;;;;;;25.78;79.41;102772.44;5010560;28;20081;-50
2022/10/06 09:13:19;;;;;;;15.97;2.30;;;;;;;27.26;71.12;102779.09;4992591;28;20031;-51
2022/10/06 09:15:53;;;;;;;11.33;2.33;;;;;;;26.41;71.21;102785.91;5000929;28;20041;-53
2022/10/06 09:18:42;;;;;;;13.03;2.20;;;;;;;27.53;67.79;102780.97;5028912;28;20019;-53
2022/10/06 09:21:14;;;;;;;13.37;2.47;;;;;;;26.76;67.20;102784.66;5011036;28;20034;-55
2022/10/06 09:23:52;;;;;;;13.13;3.00;;;;;;;26.65;68.81;102798.53;5007423;28;20034;-53
2022/10/06 09:26:27;;;;;;;15.70;2.37;;;;;;;26.22;68.19;102806.50;5004538;28;20035;-55
2022/10/06 09:28:54;;;;;;;14.57;2.80;;;;;;;26.55;69.09;102793.75;5002468;28;20102;-54
2022/10/06 09:31:38;;;;;;;10.47;2.50;;;;;;;26.89;68.67;102797.16;5017044;28;20033;-51
2022/10/06 09:34:17;;;;;;;10.97;2.43;;;;;;;26.38;69.08;102794.66;5009293;28;20034;-56
2022/10/06 09:36:59;;;;;;;10.23;2.10;;;;;;;26.87;67.33;102801.25;5009128;28;20031;-53
2022/10/06 09:39:31;;;;;;;11.30;2.27;;;;;;;28.26;61.31;102808.88;5011071;28;20053;-54
2022/10/06 09:42:01;;;;;;;8.67;1.73;;;;;;;26.84;64.22;102829.19;5004387;28;20030;-53
2022/10/06 09:44:34;;;;;;;7.97;1.90;;;;;;;27.33;61.50;102814.56;5018693;28;20031;-56
2022/10/06 09:46:59;;;;;;;17.30;2.67;;;;;;;28.72;57.27;102822.78;5010798;28;20107;-52
2022/10/06 09:49:26;;;;;;;12.48;2.58;;;;;;;28.34;58.83;102816.59;4992538;28;20042;-54
2022/10/06 09:51:57;;;;;;;10.50;2.60;;;;;;;28.47;57.13;102810.59;4991707;28;20054;-55
2022/10/06 09:54:24;;;;;;;14.57;2.20;;;;;;;26.62;61.79;102811.66;5003895;28;20065;-54
2022/10/06 09:56:52;;;;;;;9.70;2.27;;;;;;;27.36;62.22;102810.47;5027329;28;20035;-54
2022/10/06 09:59:39;;;;;;;13.57;2.57;;;;;;;28.82;56.75;102813.75;5012196;28;20035;-55
2022/10/06 10:02:25;;;;;;;13.90;2.03;;;;;;;27.49;56.86;102818.28;4991965;28;20126;-53
2022/10/06 10:04:54;;;;;;;9.82;1.83;;;;;;;25.76;63.22;102816.56;4994440;28;20038;-53
2022/10/06 10:07:23;;;;;;;13.17;1.60;;;;;;;27.07;59.79;102822.56;5012827;28;20039;-55
2022/10/06 10:09:53;;;;;;;8.13;1.43;;;;;;;26.59;59.60;102827.81;5003721;28;20031;-55
2022/10/06 10:12:23;;;;;;;10.93;1.90;;;;;;;27.90;56.56;102824.06;5002639;28;20038;-53
2022/10/06 10:14:50;;;;;;;10.30;2.30;;;;;;;28.24;55.12;102822.06;4997220;28;20034;-55
2022/10/06 10:17:31;;;;;;;7.47;1.40;;;;;;;27.62;54.26;102822.53;5004196;28;20038;-54
2022/10/06 10:19:58;;;;;;;8.33;2.23;;;;;;;27.62;55.49;102812.34;5007423;28;20031;-53
2022/10/06 10:22:36;;;;;;;8.77;1.80;;;;;;;28.33;53.86;102831.44;4997842;28;20039;-55
2022/10/06 10:25:33;;;;;;;10.40;1.93;;;;;;;29.07;50.42;102833.34;5003788;28;20030;-55
2022/10/06 10:28:41;;;;;;;8.63;1.77;;;;;;;27.99;51.96;102823.56;5002252;28;20035;-55
2022/10/06 10:31:32;;;;;;;11.10;2.13;;;;;;;28.31;49.15;102829.00;5013405;28;20052;-54
2022/10/06 10:34:06;;;;;;;11.83;1.80;;;;;;;27.20;51.91;102826.81;4989533;28;20038;-55
2022/10/06 10:36:37;;;;;;;8.27;1.90;;;;;;;30.27;47.70;102835.69;5003259;28;20037;-56
2022/10/06 10:39:08;;;;;;;14.00;3.60;;;;;;;30.40;45.70;102838.94;4992559;28;20050;-57
2022/10/06 10:41:43;;;;;;;12.55;2.80;;;;;;;31.51;44.65;102839.59;4986566;28;20051;-61
2022/10/06 10:44:13;;;;;;;12.07;2.78;;;;;;;33.93;39.19;102846.72;4978639;28;20025;-55
2022/10/06 10:46:47;;;;;;;6.97;1.60;;;;;;;32.47;40.25;102840.75;4997688;28;20084;-55
2022/10/06 10:49:26;;;;;;;10.27;2.05;;;;;;;30.20;42.60;102887.59;5000508;28;20033;-54
2022/10/06 10:52:01;;;;;;;5.53;0.98;;;;;;;27.98;47.86;102847.47;5006273;28;20085;-54
2022/10/06 10:54:30;;;;;;;6.88;1.35;;;;;;;28.16;47.38;102848.16;5010609;28;20033;-55
2022/10/06 10:56:57;;;;;;;7.63;1.63;;;;;;;27.26;52.24;102847.75;5001454;28;20102;-50
2022/10/06 10:59:28;;;;;;;10.10;1.80;;;;;;;28.06;52.30;102848.91;4992297;28;20035;-52
2022/10/06 11:02:09;;;;;;;5.23;1.13;;;;;;;27.12;50.98;102852.00;4996723;28;20065;-55
2022/10/06 11:04:39;;;;;;;9.20;1.87;;;;;;;30.17;47.08;102855.84;4996803;28;20034;-53
2022/10/06 11:07:28;;;;;;;9.10;1.95;;;;;;;31.73;42.23;102861.25;5000733;28;20085;-52
2022/10/06 11:10:07;;;;;;;6.05;1.42;;;;;;;30.31;41.72;102858.84;4992346;28;20049;-56
2022/10/06 11:12:56;;;;;;;6.32;1.40;;;;;;;29.43;41.02;102859.00;4997836;28;20051;-54
2022/10/06 11:15:43;;;;;;;7.28;1.10;;;;;;;30.64;38.85;102860.38;5003876;28;20126;-54
2022/10/06 11:18:42;;;;;;;6.75;1.10;;;;;;;30.92;38.79;102858.84;4999541;28;20032;-53
2022/10/06 11:21:19;;;;;;;8.95;1.20;;;;;;;30.33;38.61;102866.84;4996476;28;20027;-56
2022/10/06 11:23:59;;;;;;;11.35;1.70;;;;;;;31.53;38.20;102858.66;4998298;28;20042;-53
2022/10/06 11:26:47;;;;;;;9.32;1.25;;;;;;;31.58;36.79;102870.47;4989494;28;20035;-56
2022/10/06 11:29:40;;;;;;;9.93;1.88;;;;;;;31.11;37.80;102847.94;4998249;28;20034;-53
2022/10/06 11:32:20;;;;;;;4.85;1.50;;;;;;;32.41;36.98;102858.56;4995257;28;20062;-55
2022/10/06 11:34:49;;;;;;;7.22;1.50;;;;;;;33.23;34.00;102858.50;5004800;28;20030;-56
2022/10/06 11:37:21;;;;;;;7.78;1.60;;;;;;;31.61;35.95;102853.34;4994713;28;20031;-54
2022/10/06 11:40:02;;;;;;;12.57;1.65;;;;;;;32.85;35.75;102861.28;4999114;28;20035;-54
2022/10/06 11:42:39;;;;;;;8.23;1.95;;;;;;;31.50;38.51;102860.06;5008124;28;20030;-56